Time;durP1;ratioP1;P1;durP2;ratioP2;P2;SDS_P1;SDS_P2;PMS_P1;PMS_P2;Temp;Humidity;BMP_temperature;BMP_pressure;BME280_temperature;BME280_humidity;BME280_pressure;Samples;Min_cycle;Max_cycle;Signal;HPM_P1;HPM_P2
2021/07/27 00:01:16;;;;;;;3.20;2.97;;;19.70;99.90;;;;;;5044152;28;20224;-77
2021/07/27 00:03:55;;;;;;;3.85;3.55;;;19.60;99.90;;;;;;5036943;28;20239;-78
2021/07/27 00:06:22;;;;;;;3.80;3.50;;;19.40;99.90;;;;;;5043544;28;20602;-79
2021/07/27 00:08:49;;;;;;;3.67;3.38;;;19.20;99.90;;;;;;5042294;28;20277;-79
2021/07/27 00:11:18;;;;;;;3.95;3.58;;;19.10;99.90;;;;;;5034862;28;20253;-78
2021/07/27 00:13:45;;;;;;;3.45;3.15;;;19.10;99.90;;;;;;5036140;28;20296;-77
2021/07/27 00:16:12;;;;;;;3.63;3.22;;;19.00;99.90;;;;;;5038082;28;20258;-80
2021/07/27 00:18:39;;;;;;;3.47;3.28;;;19.10;99.90;;;;;;5035278;28;20246;-78
2021/07/27 00:21:06;;;;;;;4.25;3.85;;;19.10;99.90;;;;;;5032711;28;20219;-78
2021/07/27 00:23:34;;;;;;;3.60;3.25;;;19.10;99.90;;;;;;5036547;28;20253;-79
2021/07/27 00:26:01;;;;;;;4.18;3.70;;;19.00;99.90;;;;;;5045016;28;20297;-78
2021/07/27 00:28:30;;;;;;;3.53;3.10;;;19.00;99.90;;;;;;5039269;28;20223;-79
2021/07/27 00:30:57;;;;;;;3.88;3.40;;;19.00;99.90;;;;;;5034397;28;20231;-78
2021/07/27 00:33:24;;;;;;;3.40;3.10;;;19.00;99.90;;;;;;5035495;28;20306;-79
2021/07/27 00:35:51;;;;;;;3.63;3.30;;;19.00;99.90;;;;;;5040141;28;20275;-78
2021/07/27 00:38:22;;;;;;;3.72;2.92;;;19.10;99.90;;;;;;5040562;28;20229;-77
2021/07/27 00:40:49;;;;;;;3.30;3.10;;;19.10;99.90;;;;;;5034411;28;20648;-77
2021/07/27 00:43:17;;;;;;;3.30;3.03;;;19.20;99.90;;;;;;5041753;28;20273;-78
2021/07/27 00:45:45;;;;;;;3.70;3.30;;;19.20;99.90;;;;;;5041712;28;20223;-78
2021/07/27 00:48:13;;;;;;;3.50;3.20;;;19.20;99.90;;;;;;5042904;28;20242;-77
2021/07/27 00:50:40;;;;;;;3.42;3.13;;;19.20;99.90;;;;;;5041663;28;20219;-79
2021/07/27 00:53:07;;;;;;;4.05;3.00;;;19.20;99.90;;;;;;5047501;28;20227;-78
2021/07/27 00:55:35;;;;;;;3.67;3.38;;;19.20;99.90;;;;;;5038170;28;20246;-77
2021/07/27 00:58:03;;;;;;;3.60;3.38;;;19.10;99.90;;;;;;5041085;28;20713;-78
2021/07/27 01:00:30;;;;;;;4.50;4.10;;;19.10;99.90;;;;;;5019167;28;20238;-79
2021/07/27 01:02:58;;;;;;;3.90;3.60;;;18.90;99.90;;;;;;5019757;28;20223;-77
2021/07/27 01:05:26;;;;;;;3.50;3.30;;;18.70;99.90;;;;;;5023565;28;20227;-78
2021/07/27 01:07:54;;;;;;;4.30;3.75;;;18.70;99.90;;;;;;5023380;28;20306;-78
2021/07/27 01:10:21;;;;;;;3.97;3.67;;;18.80;99.90;;;;;;5022793;28;20224;-80
2021/07/27 01:12:48;;;;;;;3.67;3.38;;;18.80;99.90;;;;;;5025210;28;20228;-78
2021/07/27 01:15:16;;;;;;;4.00;3.60;;;18.90;99.90;;;;;;5019261;28;20278;-78
2021/07/27 01:17:44;;;;;;;3.75;3.45;;;18.90;99.90;;;;;;5025287;28;20219;-78
2021/07/27 01:20:20;;;;;;;3.75;3.45;;;18.80;99.90;;;;;;5024483;28;20223;-78
2021/07/27 01:39:29;;;;;;;3.50;3.20;;;19.00;99.90;;;;;;5045934;28;20600;-78
2021/07/27 01:42:09;;;;;;;3.08;2.78;;;19.00;99.90;;;;;;5029395;28;20254;-80
2021/07/27 01:44:42;;;;;;;3.78;3.30;;;19.00;99.90;;;;;;5050919;28;20218;-78
2021/07/27 01:47:11;;;;;;;4.13;3.72;;;19.00;99.90;;;;;;5036722;28;20223;-79
2021/07/27 01:49:38;;;;;;;7.68;4.28;;;19.00;99.90;;;;;;5034180;28;20250;-78
2021/07/27 01:52:09;;;;;;;153.00;11.05;;;18.90;99.90;;;;;;5034934;28;20246;-78
2021/07/27 01:54:53;;;;;;;154.65;10.55;;;18.70;99.90;;;;;;5035941;28;20596;-78
2021/07/27 01:57:20;;;;;;;6.40;5.80;;;18.40;99.90;;;;;;5042636;28;20688;-78
2021/07/27 01:59:50;;;;;;;5.75;5.20;;;18.20;99.90;;;;;;5036742;28;20584;-78
2021/07/27 02:02:17;;;;;;;4.78;4.32;;;18.10;99.90;;;;;;5027342;28;20212;-77
2021/07/27 02:04:44;;;;;;;4.25;3.95;;;18.10;99.90;;;;;;5033694;28;20777;-79
2021/07/27 02:07:11;;;;;;;4.45;4.13;;;18.20;99.90;;;;;;5034037;28;20289;-78
2021/07/27 02:09:40;;;;;;;4.10;3.80;;;18.30;99.90;;;;;;5034965;28;20227;-78
2021/07/27 02:12:16;;;;;;;4.50;4.10;;;18.30;99.90;;;;;;5037693;28;20215;-80
2021/07/27 02:17:28;;;;;;;4.30;3.90;;;18.40;99.90;;;;;;5039994;28;20238;-78
2021/07/27 02:19:55;;;;;;;4.32;3.92;;;18.40;99.90;;;;;;5033746;28;20282;-78
2021/07/27 02:22:22;;;;;;;3.72;3.40;;;18.50;99.90;;;;;;5034653;28;20223;-78
2021/07/27 02:24:49;;;;;;;3.85;3.55;;;18.50;99.90;;;;;;5035249;28;20222;-77
2021/07/27 02:27:17;;;;;;;3.85;3.55;;;18.50;99.90;;;;;;5034677;28;20219;-79
2021/07/27 02:29:45;;;;;;;4.07;3.78;;;18.50;99.90;;;;;;5036556;28;20215;-78
2021/07/27 02:32:12;;;;;;;4.50;4.10;;;18.60;99.90;;;;;;5039915;28;20229;-79
2021/07/27 02:34:39;;;;;;;4.10;3.80;;;18.60;99.90;;;;;;5061437;28;20223;-82
2021/07/27 02:37:06;;;;;;;3.88;3.58;;;18.60;99.90;;;;;;5044606;28;20712;-77
2021/07/27 02:39:33;;;;;;;4.20;3.90;;;18.50;99.90;;;;;;5046318;28;20212;-79
2021/07/27 02:42:00;;;;;;;4.35;4.03;;;18.40;99.90;;;;;;5057217;28;20218;-77
2021/07/27 02:44:29;;;;;;;4.47;4.13;;;18.40;99.90;;;;;;5033693;28;20224;-77
2021/07/27 02:46:56;;;;;;;4.38;3.97;;;18.30;99.90;;;;;;5041092;28;20754;-77
2021/07/27 02:49:23;;;;;;;4.40;4.00;;;18.30;99.90;;;;;;5040771;28;20228;-77
2021/07/27 02:51:51;;;;;;;4.13;3.80;;;18.20;99.90;;;;;;5047954;28;20794;-77
2021/07/27 02:54:18;;;;;;;4.20;3.80;;;18.20;99.90;;;;;;5043335;28;20602;-78
2021/07/27 02:56:46;;;;;;;3.90;3.60;;;18.30;99.90;;;;;;5038366;28;20788;-77
2021/07/27 02:59:13;;;;;;;4.07;3.78;;;18.40;99.90;;;;;;5040434;28;20227;-77
2021/07/27 03:01:41;;;;;;;3.88;3.58;;;18.40;99.90;;;;;;5043363;28;20344;-78
2021/07/27 03:04:08;;;;;;;3.83;3.53;;;18.50;99.90;;;;;;5042943;28;20227;-77
2021/07/27 03:06:35;;;;;;;3.95;3.65;;;18.60;99.90;;;;;;5037651;28;20775;-78
2021/07/27 03:09:15;;;;;;;4.30;4.00;;;18.60;99.90;;;;;;5039353;28;20229;-78
2021/07/27 03:11:43;;;;;;;4.32;3.63;;;18.60;99.90;;;;;;5025130;28;20223;-77
2021/07/27 03:14:10;;;;;;;3.67;3.38;;;18.60;99.90;;;;;;5023565;28;20236;-77
2021/07/27 03:16:38;;;;;;;4.43;4.00;;;18.60;99.90;;;;;;5033292;28;20273;-77
2021/07/27 03:19:06;;;;;;;4.28;3.97;;;18.60;99.90;;;;;;5042051;28;20689;-77
2021/07/27 03:21:33;;;;;;;4.05;3.70;;;18.60;99.90;;;;;;5036420;28;20219;-78
2021/07/27 03:24:00;;;;;;;3.67;3.33;;;18.50;99.90;;;;;;5035319;28;20226;-78
2021/07/27 03:26:27;;;;;;;4.00;3.67;;;18.50;99.90;;;;;;5048894;28;20701;-77
2021/07/27 03:28:54;;;;;;;4.40;4.00;;;18.50;99.90;;;;;;5039978;28;20883;-77
2021/07/27 03:31:22;;;;;;;3.90;3.60;;;18.50;99.90;;;;;;5025273;28;20270;-78
2021/07/27 03:33:49;;;;;;;4.43;4.03;;;18.50;99.90;;;;;;5032336;28;20231;-79
2021/07/27 03:36:17;;;;;;;4.63;4.20;;;18.40;99.90;;;;;;5031472;28;20246;-77
2021/07/27 03:38:44;;;;;;;4.47;4.18;;;18.40;99.90;;;;;;5028811;28;20652;-78
2021/07/27 03:41:13;;;;;;;3.83;3.50;;;18.40;99.90;;;;;;5030307;28;20301;-78
2021/07/27 03:43:40;;;;;;;4.00;3.70;;;18.40;99.90;;;;;;5030685;28;20239;-78
2021/07/27 03:46:08;;;;;;;4.10;3.72;;;18.40;99.90;;;;;;5030313;28;20219;-78
2021/07/27 03:48:35;;;;;;;3.88;3.58;;;18.50;99.90;;;;;;5032156;28;20712;-79
2021/07/27 03:51:02;;;;;;;3.67;3.45;;;18.50;99.90;;;;;;5033159;28;20228;-80
2021/07/27 03:53:30;;;;;;;4.07;3.78;;;18.40;99.90;;;;;;5037122;28;20280;-77
2021/07/27 03:55:57;;;;;;;3.70;3.40;;;18.40;99.90;;;;;;5035784;28;20233;-77
2021/07/27 03:58:24;;;;;;;3.70;3.40;;;18.50;99.90;;;;;;5033439;28;20289;-79
2021/07/27 04:00:51;;;;;;;4.35;3.95;;;18.50;99.90;;;;;;5027979;28;20227;-77
2021/07/27 04:03:18;;;;;;;3.65;3.35;;;18.50;99.90;;;;;;5027699;28;20232;-77
2021/07/27 04:05:45;;;;;;;4.53;3.83;;;18.50;99.90;;;;;;5040576;28;20280;-78
2021/07/27 04:08:12;;;;;;;4.30;3.90;;;18.50;99.90;;;;;;5038698;28;20627;-78
2021/07/27 04:10:42;;;;;;;3.97;3.67;;;18.50;99.90;;;;;;5036194;28;20310;-77
2021/07/27 04:13:09;;;;;;;4.00;3.70;;;18.50;99.90;;;;;;5031898;28;20231;-77
2021/07/27 04:15:43;;;;;;;3.65;3.35;;;18.50;99.90;;;;;;5026075;28;20273;-78
2021/07/27 04:18:10;;;;;;;4.00;3.70;;;18.50;99.90;;;;;;5046222;28;20223;-79
2021/07/27 04:20:37;;;;;;;4.03;3.72;;;18.50;99.90;;;;;;5039264;28;20617;-77
2021/07/27 04:23:05;;;;;;;3.95;3.65;;;18.50;99.90;;;;;;5035330;28;20276;-77
2021/07/27 04:25:33;;;;;;;3.80;3.50;;;18.50;99.90;;;;;;5034686;28;20606;-79
2021/07/27 04:28:02;;;;;;;3.83;3.53;;;18.40;99.90;;;;;;5033021;28;20215;-78
2021/07/27 04:30:29;;;;;;;4.53;3.80;;;18.50;99.90;;;;;;5038672;28;20329;-79
2021/07/27 04:32:56;;;;;;;4.00;3.70;;;18.40;99.90;;;;;;5032111;28;20224;-78
2021/07/27 04:35:23;;;;;;;3.50;3.30;;;18.50;99.90;;;;;;5033915;28;20223;-79
2021/07/27 04:37:53;;;;;;;4.38;3.97;;;18.50;99.90;;;;;;5044586;28;20247;-77
2021/07/27 04:40:22;;;;;;;3.78;3.25;;;18.50;99.90;;;;;;5032497;28;20223;-78
2021/07/27 04:42:49;;;;;;;4.07;3.78;;;18.50;99.90;;;;;;5034275;28;20305;-78
2021/07/27 04:45:17;;;;;;;4.07;3.72;;;18.50;99.90;;;;;;5030872;28;20227;-79
2021/07/27 04:47:45;;;;;;;4.00;3.70;;;18.50;99.90;;;;;;5029251;28;20235;-78
2021/07/27 04:50:14;;;;;;;5.32;3.83;;;18.60;99.90;;;;;;5033998;28;20281;-79
2021/07/27 04:52:49;;;;;;;4.30;3.90;;;18.60;99.90;;;;;;5031964;28;20238;-77
2021/07/27 04:55:16;;;;;;;3.80;3.50;;;18.60;99.90;;;;;;5029715;28;20211;-78
2021/07/27 04:57:43;;;;;;;4.28;3.97;;;18.70;99.90;;;;;;5032462;28;20211;-77
2021/07/27 05:00:18;;;;;;;4.15;3.60;;;18.80;99.90;;;;;;5036145;28;20777;-78
2021/07/27 05:02:45;;;;;;;3.92;3.63;;;18.90;99.90;;;;;;5027543;28;20712;-79
2021/07/27 05:05:12;;;;;;;4.15;3.83;;;18.90;99.90;;;;;;5032067;28;20211;-79
2021/07/27 05:07:39;;;;;;;4.53;4.13;;;19.00;99.90;;;;;;5031349;28;20228;-80
2021/07/27 05:10:07;;;;;;;3.75;3.45;;;19.00;99.90;;;;;;5044298;28;20649;-78
2021/07/27 05:12:36;;;;;;;4.35;3.95;;;19.10;99.90;;;;;;5030844;28;20227;-79
2021/07/27 05:15:05;;;;;;;4.28;3.97;;;19.20;99.90;;;;;;5042472;28;20272;-78
2021/07/27 05:17:33;;;;;;;3.80;3.50;;;19.20;99.90;;;;;;5031997;28;20320;-79
2021/07/27 05:20:01;;;;;;;3.53;3.22;;;19.10;99.90;;;;;;5042766;28;20218;-78
2021/07/27 05:22:28;;;;;;;4.10;3.72;;;19.00;99.90;;;;;;5039751;28;20227;-80
2021/07/27 05:24:55;;;;;;;3.72;3.42;;;19.00;99.90;;;;;;5050650;28;20227;-78
2021/07/27 05:27:23;;;;;;;4.43;4.03;;;19.00;99.90;;;;;;5037237;28;20771;-78
2021/07/27 05:29:51;;;;;;;4.65;3.88;;;19.10;99.90;;;;;;5037287;28;20219;-78
2021/07/27 05:32:19;;;;;;;3.72;3.42;;;19.20;99.90;;;;;;5036438;28;20226;-78
2021/07/27 05:34:47;;;;;;;3.80;3.50;;;19.30;99.90;;;;;;5034558;28;20283;-78
2021/07/27 05:37:14;;;;;;;4.03;3.72;;;19.40;99.90;;;;;;5040932;28;20233;-78
2021/07/27 05:39:41;;;;;;;4.28;3.88;;;19.40;99.90;;;;;;5035716;28;20231;-78
2021/07/27 05:42:08;;;;;;;4.28;3.97;;;19.40;99.90;;;;;;5040076;28;20219;-78
2021/07/27 05:44:35;;;;;;;4.55;4.03;;;19.50;99.90;;;;;;5039922;28;20237;-79
2021/07/27 05:47:03;;;;;;;4.10;3.80;;;19.30;99.90;;;;;;5040931;28;20223;-79
2021/07/27 05:49:31;;;;;;;4.70;4.03;;;19.30;99.90;;;;;;5040436;28;20250;-78
2021/07/27 05:52:00;;;;;;;4.05;3.75;;;19.20;99.90;;;;;;5037000;28;20273;-79
2021/07/27 05:54:28;;;;;;;3.42;3.22;;;19.30;99.90;;;;;;5047042;28;20261;-78
2021/07/27 05:56:55;;;;;;;3.50;3.30;;;19.50;99.90;;;;;;5041071;28;20245;-79
2021/07/27 05:59:23;;;;;;;4.15;3.75;;;19.60;99.90;;;;;;5041167;28;20749;-80
2021/07/27 06:01:50;;;;;;;4.10;3.53;;;19.80;99.90;;;;;;5045581;28;20770;-79
2021/07/27 06:04:18;;;;;;;16.70;4.72;;;19.80;99.90;;;;;;5039658;28;20571;-79
2021/07/27 06:06:45;;;;;;;4.80;4.22;;;19.90;99.90;;;;;;5043003;28;20234;-79
2021/07/27 06:09:14;;;;;;;4.55;4.15;;;19.80;99.90;;;;;;5042028;28;20269;-78
2021/07/27 06:11:42;;;;;;;4.68;4.28;;;19.80;99.90;;;;;;5034146;28;20297;-79
2021/07/27 06:14:09;;;;;;;4.72;4.32;;;19.80;99.90;;;;;;5042298;28;20234;-78
2021/07/27 06:16:37;;;;;;;5.35;4.85;;;19.80;99.90;;;;;;5035600;28;20223;-78
2021/07/27 06:19:05;;;;;;;4.78;4.38;;;19.90;99.90;;;;;;5043105;28;20218;-79
2021/07/27 06:21:32;;;;;;;4.85;4.43;;;19.90;99.90;;;;;;5035335;28;20233;-79
2021/07/27 06:23:59;;;;;;;4.28;3.92;;;19.90;99.90;;;;;;5043833;28;20231;-79
2021/07/27 06:26:28;;;;;;;4.72;4.32;;;19.90;99.90;;;;;;5035398;28;20223;-80
2021/07/27 06:28:55;;;;;;;4.80;4.07;;;19.90;99.90;;;;;;5035790;28;20235;-79
2021/07/27 06:31:22;;;;;;;3.90;3.60;;;20.00;99.90;;;;;;5036269;28;20214;-79
2021/07/27 06:33:49;;;;;;;4.97;4.57;;;20.10;99.90;;;;;;5036547;28;20232;-79
2021/07/27 06:36:16;;;;;;;5.75;5.15;;;20.10;99.90;;;;;;5032158;28;20215;-79
2021/07/27 06:38:43;;;;;;;8.18;5.53;;;20.00;99.90;;;;;;5034204;28;20215;-81
2021/07/27 06:41:12;;;;;;;9.70;5.43;;;19.90;99.90;;;;;;5033840;28;20231;-78
2021/07/27 06:43:41;;;;;;;5.90;5.40;;;19.80;99.90;;;;;;5037906;28;20219;-79
2021/07/27 06:46:09;;;;;;;5.00;4.50;;;19.80;99.90;;;;;;5028143;28;20646;-80
2021/07/27 06:48:36;;;;;;;5.30;4.80;;;19.90;99.90;;;;;;5033704;28;20218;-80
2021/07/27 06:51:11;;;;;;;6.82;4.70;;;20.10;99.90;;;;;;5038055;28;20215;-81
2021/07/27 06:53:38;;;;;;;4.40;3.95;;;20.30;99.90;;;;;;5041319;28;20272;-78
2021/07/27 06:56:07;;;;;;;4.45;4.05;;;20.30;99.90;;;;;;5027495;28;20219;-80
2021/07/27 06:58:34;;;;;;;4.20;3.90;;;20.40;99.90;;;;;;5028204;28;20269;-78
2021/07/27 07:01:04;;;;;;;4.70;4.30;;;20.50;99.90;;;;;;5029019;28;20251;-77
2021/07/27 07:03:31;;;;;;;4.57;4.22;;;20.50;99.90;;;;;;5031775;28;20230;-77
2021/07/27 07:05:59;;;;;;;5.88;5.38;;;20.60;99.90;;;;;;5026042;28;20227;-80
2021/07/27 07:08:26;;;;;;;5.55;5.05;;;20.50;99.90;;;;;;5034246;28;20231;-77
2021/07/27 07:10:57;;;;;;;5.35;4.95;;;20.50;99.90;;;;;;5034930;28;20231;-78
2021/07/27 07:20:41;;;;;;;4.97;4.53;;;20.70;99.90;;;;;;4810719;29;20376;-78
2021/07/27 07:24:17;;;;;;;4.90;4.53;;;20.70;99.90;;;;;;4888915;28;20302;-78
2021/07/27 07:30:30;;;;;;;4.68;4.28;;;21.20;99.90;;;;;;4908679;28;20301;-78
2021/07/27 07:44:05;;;;;;;5.43;4.85;;;22.00;99.90;;;;;;4962516;28;20250;-79
2021/07/27 08:03:39;;;;;;;5.55;5.05;;;23.00;99.90;;;;;;4825747;29;20245;-79
2021/07/27 08:06:25;;;;;;;5.00;4.50;;;23.20;99.90;;;;;;4835592;29;20235;-79
2021/07/27 08:25:49;;;;;;;5.47;5.00;;;23.50;99.90;;;;;;4876351;29;20239;-78
2021/07/27 08:28:36;;;;;;;6.25;4.95;;;23.70;99.90;;;;;;4892331;28;20227;-79
2021/07/27 08:31:06;;;;;;;5.25;4.80;;;24.00;99.90;;;;;;4944153;28;20218;-78
2021/07/27 08:33:33;;;;;;;5.03;4.63;;;24.10;99.90;;;;;;4939124;28;20622;-78
2021/07/27 08:36:00;;;;;;;5.65;5.07;;;23.90;99.90;;;;;;4975131;28;20248;-78
2021/07/27 08:38:28;;;;;;;4.78;4.38;;;23.70;99.90;;;;;;4990776;28;20215;-77
2021/07/27 08:40:57;;;;;;;5.30;4.88;;;23.60;99.90;;;;;;5032189;28;20224;-78
2021/07/27 08:43:25;;;;;;;4.55;4.15;;;23.70;99.90;;;;;;5040397;28;20235;-77
2021/07/27 08:45:53;;;;;;;5.70;5.20;;;23.80;99.90;;;;;;5040362;28;20222;-78
2021/07/27 08:48:20;;;;;;;5.45;4.93;;;23.80;99.90;;;;;;5036017;28;20227;-78
2021/07/27 08:50:48;;;;;;;5.30;4.90;;;23.70;99.90;;;;;;5046507;28;20284;-78
2021/07/27 08:53:15;;;;;;;6.22;5.15;;;23.80;99.90;;;;;;5037692;28;20227;-78
2021/07/27 09:02:53;;;;;;;5.43;4.95;;;24.70;99.90;;;;;;4999207;28;20714;-77
2021/07/27 09:06:01;;;;;;;5.90;5.25;;;24.80;99.90;;;;;;4912927;28;20273;-77
2021/07/27 09:29:48;;;;;;;5.68;4.97;;;25.80;99.90;;;;;;4976479;28;20760;-78
2021/07/27 09:50:40;;;;;;;6.75;5.47;;;26.10;99.90;;;;;;4983619;28;20223;-77
2021/07/27 09:53:23;;;;;;;5.70;5.10;;;26.00;99.90;;;;;;4932636;28;20750;-81
2021/07/27 09:59:01;;;;;;;6.05;4.53;;;25.70;99.90;;;;;;5006208;28;20226;-79
2021/07/27 10:05:44;;;;;;;5.45;4.78;;;25.90;99.90;;;;;;5005616;28;20227;-77
2021/07/27 10:35:34;;;;;;;4.05;3.72;;;27.20;99.90;;;;;;5032400;28;20234;-78
2021/07/27 10:38:46;;;;;;;4.45;4.05;;;26.90;99.90;;;;;;5042079;28;20225;-77
2021/07/27 10:41:35;;;;;;;5.20;4.15;;;26.80;99.90;;;;;;5030450;28;20326;-78
2021/07/27 10:44:05;;;;;;;5.47;4.97;;;26.60;99.90;;;;;;5036820;28;20234;-77
2021/07/27 10:46:37;;;;;;;4.95;4.43;;;26.30;99.90;;;;;;5041419;28;20215;-76
2021/07/27 10:49:04;;;;;;;5.15;4.53;;;26.30;99.90;;;;;;5032216;28;20659;-77
2021/07/27 10:51:36;;;;;;;5.70;5.07;;;26.10;99.90;;;;;;5028050;28;20226;-76
2021/07/27 10:54:04;;;;;;;4.43;4.03;;;25.80;99.90;;;;;;5030510;28;20635;-78
2021/07/27 10:56:35;;;;;;;5.47;5.00;;;25.50;99.90;;;;;;5043820;28;20816;-76
2021/07/27 10:59:03;;;;;;;4.22;3.92;;;25.30;99.90;;;;;;5010912;28;20696;-76
2021/07/27 11:01:31;;;;;;;4.05;3.75;;;25.10;99.90;;;;;;5028648;28;20585;-78
2021/07/27 11:04:12;;;;;;;4.22;3.92;;;24.90;99.90;;;;;;5034510;28;20315;-78
2021/07/27 11:06:39;;;;;;;4.25;3.95;;;24.70;99.90;;;;;;5033094;28;20219;-78
2021/07/27 11:09:11;;;;;;;4.25;3.85;;;24.60;99.90;;;;;;5045415;28;20723;-78
2021/07/27 11:11:50;;;;;;;4.07;3.72;;;24.40;99.90;;;;;;5035301;28;20215;-78
2021/07/27 11:14:22;;;;;;;4.38;3.97;;;24.30;99.90;;;;;;5042965;28;20235;-76
2021/07/27 11:20:36;;;;;;;5.85;4.32;;;24.50;99.90;;;;;;5000730;28;20241;-77
2021/07/27 11:23:16;;;;;;;5.75;4.80;;;25.00;99.90;;;;;;4982010;28;20221;-77
2021/07/27 11:25:51;;;;;;;5.22;4.72;;;25.60;99.90;;;;;;5025235;28;20218;-76
2021/07/27 11:28:24;;;;;;;5.88;5.18;;;25.90;99.90;;;;;;5032048;28;20219;-76
2021/07/27 11:30:54;;;;;;;6.60;5.10;;;25.90;99.90;;;;;;5019340;28;20712;-78
2021/07/27 11:33:50;;;;;;;5.82;5.20;;;25.70;99.90;;;;;;5027742;28;20242;-76
2021/07/27 11:36:33;;;;;;;5.82;5.25;;;25.60;99.90;;;;;;5021210;28;20699;-76
2021/07/27 11:39:20;;;;;;;6.38;5.07;;;25.00;99.90;;;;;;5015781;28;20231;-77
2021/07/27 11:42:02;;;;;;;5.78;5.07;;;24.60;99.90;;;;;;5019714;28;20829;-77
2021/07/27 11:44:54;;;;;;;5.93;5.43;;;24.10;99.90;;;;;;5048863;28;20238;-76
2021/07/27 11:47:29;;;;;;;5.35;4.85;;;23.80;99.90;;;;;;5019229;28;20249;-79
2021/07/27 11:50:21;;;;;;;4.32;4.03;;;23.50;99.90;;;;;;4969542;28;20247;-76
2021/07/27 11:52:57;;;;;;;4.63;4.22;;;23.30;99.90;;;;;;5007328;28;20338;-77
2021/07/27 11:55:29;;;;;;;5.82;5.10;;;23.10;99.90;;;;;;5040874;28;20223;-75
2021/07/27 11:57:56;;;;;;;5.10;4.70;;;22.70;99.90;;;;;;5026565;28;20310;-80
2021/07/27 12:00:25;;;;;;;6.63;5.50;;;22.50;99.90;;;;;;5035964;28;20250;-78
2021/07/27 12:02:52;;;;;;;5.25;4.72;;;22.30;99.90;;;;;;5020673;28;20232;-76
2021/07/27 12:05:19;;;;;;;3.55;3.35;;;22.30;99.90;;;;;;5026873;28;20247;-75
2021/07/27 12:07:46;;;;;;;4.82;3.83;;;22.40;99.90;;;;;;5037064;28;20223;-78
2021/07/27 12:10:15;;;;;;;4.57;4.18;;;22.50;99.90;;;;;;5029049;28;20215;-77
2021/07/27 12:12:42;;;;;;;5.18;4.45;;;22.70;99.90;;;;;;5034603;28;20229;-77
2021/07/27 12:15:12;;;;;;;4.38;3.97;;;22.80;99.90;;;;;;5037154;28;20222;-77
2021/07/27 12:17:41;;;;;;;4.43;4.03;;;22.90;99.90;;;;;;5031721;28;20229;-77
2021/07/27 12:20:13;;;;;;;4.50;4.20;;;23.20;99.90;;;;;;5050004;28;20226;-76
2021/07/27 12:22:40;;;;;;;4.50;4.20;;;23.80;99.90;;;;;;5025108;28;20227;-76
2021/07/27 12:25:09;;;;;;;4.55;4.15;;;24.40;99.90;;;;;;5037407;28;20230;-76
2021/07/27 12:27:36;;;;;;;5.07;4.60;;;24.50;99.90;;;;;;5030952;28;20223;-76
2021/07/27 12:30:03;;;;;;;5.10;4.60;;;24.50;99.90;;;;;;5030363;28;20648;-76
2021/07/27 12:32:30;;;;;;;5.13;4.63;;;24.50;99.90;;;;;;5038187;28;20218;-76
2021/07/27 12:34:58;;;;;;;4.97;4.57;;;24.50;99.90;;;;;;5036899;28;20231;-78
2021/07/27 12:37:25;;;;;;;5.45;4.38;;;24.50;99.90;;;;;;5034001;28;20681;-77
2021/07/27 12:39:53;;;;;;;4.97;4.57;;;24.50;99.90;;;;;;5030331;28;20232;-76
2021/07/27 12:42:21;;;;;;;4.80;4.40;;;24.40;99.90;;;;;;5027431;28;20582;-76
2021/07/27 12:44:48;;;;;;;4.50;4.10;;;24.40;99.90;;;;;;5037563;28;20227;-77
2021/07/27 12:47:15;;;;;;;5.00;4.60;;;24.50;99.90;;;;;;5040237;28;20219;-76
2021/07/27 12:49:42;;;;;;;5.28;4.60;;;24.60;99.90;;;;;;5023750;28;20223;-77
2021/07/27 12:52:11;;;;;;;4.68;4.28;;;24.50;99.90;;;;;;5041248;28;20215;-78
2021/07/27 12:54:39;;;;;;;5.00;4.50;;;24.50;99.90;;;;;;5024741;28;20234;-77
2021/07/27 12:57:06;;;;;;;4.32;3.95;;;24.50;99.90;;;;;;5034081;28;20663;-76
2021/07/27 12:59:33;;;;;;;5.10;4.00;;;24.40;99.90;;;;;;5032567;28;20600;-76
2021/07/27 13:02:00;;;;;;;5.03;4.55;;;24.30;99.90;;;;;;5031943;28;20231;-77
2021/07/27 13:04:27;;;;;;;5.95;4.25;;;23.90;99.90;;;;;;5025035;28;20327;-75
2021/07/27 13:06:54;;;;;;;4.53;4.13;;;23.70;99.90;;;;;;5034442;28;20223;-77
2021/07/27 13:09:23;;;;;;;5.10;4.70;;;23.40;99.90;;;;;;5030109;28;20218;-77
2021/07/27 13:11:50;;;;;;;4.40;4.00;;;23.20;99.90;;;;;;5027885;28;20716;-78
2021/07/27 13:14:17;;;;;;;5.15;4.30;;;23.20;99.90;;;;;;5026898;28;20562;-77
2021/07/27 13:16:44;;;;;;;4.20;3.80;;;23.30;99.90;;;;;;5030515;28;20759;-76
2021/07/27 13:19:11;;;;;;;3.92;3.63;;;23.40;99.90;;;;;;5029792;28;20216;-77
2021/07/27 13:21:39;;;;;;;4.68;4.28;;;23.60;99.90;;;;;;5027873;28;20328;-76
2021/07/27 13:24:06;;;;;;;6.45;4.82;;;24.30;99.90;;;;;;5026403;28;20322;-77
2021/07/27 13:26:35;;;;;;;4.93;4.53;;;24.70;99.90;;;;;;5041487;28;20320;-79
2021/07/27 13:29:02;;;;;;;6.05;4.93;;;25.10;99.90;;;;;;5029118;28;20628;-76
2021/07/27 13:31:29;;;;;;;5.50;4.93;;;25.40;99.90;;;;;;5031466;28;20231;-76
2021/07/27 13:33:56;;;;;;;6.40;4.75;;;25.70;99.90;;;;;;5029447;28;20235;-76
2021/07/27 13:36:23;;;;;;;6.05;5.45;;;25.90;99.90;;;;;;5029932;28;20281;-77
2021/07/27 13:38:50;;;;;;;6.70;5.70;;;25.80;99.90;;;;;;5028788;28;20219;-76
2021/07/27 13:41:17;;;;;;;6.40;5.80;;;25.50;99.90;;;;;;5040024;28;20639;-76
2021/07/27 13:43:47;;;;;;;8.20;7.28;;;25.30;99.90;;;;;;5045540;28;20739;-76
2021/07/27 13:46:14;;;;;;;6.25;5.47;;;25.20;99.90;;;;;;5021677;28;20651;-78
2021/07/27 13:48:41;;;;;;;6.18;5.57;;;25.20;99.90;;;;;;5030966;28;20219;-77
2021/07/27 13:51:08;;;;;;;5.68;5.18;;;25.50;99.90;;;;;;5032227;28;20235;-76
2021/07/27 13:53:35;;;;;;;4.95;4.53;;;25.90;99.90;;;;;;5032529;28;20226;-76
2021/07/27 13:56:02;;;;;;;5.63;5.10;;;26.40;99.90;;;;;;5036088;28;20222;-76
2021/07/27 13:58:29;;;;;;;5.90;5.13;;;26.70;99.90;;;;;;5024019;28;20220;-76
2021/07/27 14:00:58;;;;;;;5.65;5.10;;;26.60;99.90;;;;;;5035218;28;20583;-75
2021/07/27 14:03:25;;;;;;;6.28;5.07;;;26.30;99.90;;;;;;5029504;28;20246;-77
2021/07/27 14:05:52;;;;;;;6.57;4.88;;;25.80;99.90;;;;;;5034247;28;21076;-78
2021/07/27 14:08:20;;;;;;;4.97;4.53;;;25.40;99.90;;;;;;5033742;28;20653;-76
2021/07/27 14:10:47;;;;;;;5.88;5.28;;;25.40;99.90;;;;;;5028428;28;20246;-76
2021/07/27 14:13:14;;;;;;;5.97;5.00;;;25.20;99.90;;;;;;5032361;28;20728;-78
2021/07/27 14:15:41;;;;;;;5.38;4.78;;;24.90;99.90;;;;;;5026414;28;20729;-75
2021/07/27 14:18:10;;;;;;;5.68;5.07;;;24.60;99.90;;;;;;5026559;28;20227;-79
2021/07/27 14:20:37;;;;;;;4.20;3.80;;;24.30;99.90;;;;;;5022868;28;20285;-77
2021/07/27 14:23:04;;;;;;;5.38;4.53;;;24.20;99.90;;;;;;5028401;28;20227;-76
2021/07/27 14:25:31;;;;;;;4.85;4.43;;;24.10;99.90;;;;;;5026278;28;20228;-78
2021/07/27 14:27:59;;;;;;;5.68;4.32;;;24.20;99.90;;;;;;5031375;28;20250;-75
2021/07/27 14:30:26;;;;;;;5.00;4.50;;;24.20;99.90;;;;;;5026501;28;20229;-76
2021/07/27 14:32:53;;;;;;;5.38;4.88;;;24.20;99.90;;;;;;5033085;28;20231;-79
2021/07/27 14:35:22;;;;;;;6.57;5.88;;;24.10;99.90;;;;;;5037482;28;20624;-77
2021/07/27 14:37:49;;;;;;;6.40;5.40;;;24.00;99.90;;;;;;5028791;28;20281;-77
2021/07/27 14:40:18;;;;;;;5.97;5.47;;;23.70;99.90;;;;;;5025114;28;20599;-76
2021/07/27 14:42:46;;;;;;;6.05;5.50;;;23.50;99.90;;;;;;5024344;28;20227;-77
2021/07/27 14:45:13;;;;;;;5.88;5.38;;;23.40;99.90;;;;;;5025027;28;20243;-75
2021/07/27 14:47:43;;;;;;;6.20;5.60;;;23.40;99.90;;;;;;5021149;28;20683;-80
2021/07/27 14:51:56;;;;;;;8.88;4.80;;;23.40;99.90;;;;;;5051878;27;20311;-74
2021/07/27 14:54:23;;;;;;;7.22;6.32;;;23.20;99.90;;;;;;5056702;28;20222;-77
2021/07/27 14:56:50;;;;;;;6.95;4.20;;;22.90;99.90;;;;;;5055523;28;20275;-77
2021/07/27 14:59:17;;;;;;;6.28;4.05;;;22.60;99.90;;;;;;5053064;28;20271;-78
2021/07/27 15:01:44;;;;;;;5.82;3.15;;;22.30;99.90;;;;;;5055622;28;20226;-76
2021/07/27 15:04:11;;;;;;;5.38;2.83;;;21.80;99.90;;;;;;5073865;28;20229;-76
2021/07/27 15:06:39;;;;;;;4.70;3.13;;;21.40;99.90;;;;;;5079767;28;20228;-77
2021/07/27 15:09:07;;;;;;;5.88;2.85;;;21.20;99.90;;;;;;5077962;28;20715;-75
2021/07/27 15:11:34;;;;;;;4.32;2.50;;;21.10;99.90;;;;;;5083212;28;20229;-78
2021/07/27 15:14:01;;;;;;;3.38;2.78;;;21.20;99.90;;;;;;5077710;28;20310;-77
2021/07/27 15:16:29;;;;;;;4.07;2.70;;;21.30;99.90;;;;;;5086104;28;20224;-77
2021/07/27 15:18:56;;;;;;;3.25;2.40;;;21.40;99.90;;;;;;5079197;28;20221;-77
2021/07/27 15:21:23;;;;;;;3.75;2.70;;;21.60;99.90;;;;;;5085800;28;20218;-76
2021/07/27 15:23:51;;;;;;;4.75;2.88;;;22.00;99.90;;;;;;5080773;28;20229;-76
2021/07/27 15:26:19;;;;;;;4.93;2.92;;;22.40;99.90;;;;;;5084034;28;20813;-78
2021/07/27 15:28:46;;;;;;;3.67;3.13;;;22.60;99.90;;;;;;5080334;28;20278;-76
2021/07/27 15:31:13;;;;;;;2.35;2.13;;;22.70;99.90;;;;;;5081886;28;20225;-76
2021/07/27 15:33:40;;;;;;;3.03;2.08;;;22.80;99.90;;;;;;5085317;28;21557;-73
2021/07/27 15:36:11;;;;;;;3.40;1.98;;;22.80;99.90;;;;;;5078266;28;20240;-75
2021/07/27 15:38:42;;;;;;;2.80;2.00;;;22.70;99.90;;;;;;5078234;28;20252;-77